sensor_id;sensor_type;location;lat;lon;timestamp;P1;durP1;ratioP1;P2;durP2;ratioP2
30380;SDS011;17169;50.966;11.038;2022-08-05T00:01:09;23.00;;;2.65;;
30380;SDS011;17169;50.966;11.038;2022-08-05T00:04:12;11.30;;;2.20;;
30380;SDS011;17169;50.966;11.038;2022-08-05T00:07:16;7.32;;;2.20;;
30380;SDS011;17169;50.966;11.038;2022-08-05T00:10:19;11.15;;;2.17;;
30380;SDS011;17169;50.966;11.038;2022-08-05T00:13:22;9.70;;;2.53;;
30380;SDS011;17169;50.966;11.038;2022-08-05T00:16:25;6.97;;;2.40;;
30380;SDS011;17169;50.966;11.038;2022-08-05T00:19:27;6.65;;;2.40;;
30380;SDS011;17169;50.966;11.038;2022-08-05T00:22:31;5.65;;;2.00;;
30380;SDS011;17169;50.966;11.038;2022-08-05T00:25:33;3.85;;;2.25;;
30380;SDS011;17169;50.966;11.038;2022-08-05T00:28:36;12.48;;;2.00;;
30380;SDS011;17169;50.966;11.038;2022-08-05T00:31:38;5.68;;;2.30;;
30380;SDS011;17169;50.966;11.038;2022-08-05T00:34:41;9.10;;;2.40;;
30380;SDS011;17169;50.966;11.038;2022-08-05T00:37:46;6.40;;;2.47;;
30380;SDS011;17169;50.966;11.038;2022-08-05T00:40:49;10.75;;;2.38;;
30380;SDS011;17169;50.966;11.038;2022-08-05T00:43:53;10.00;;;2.60;;
30380;SDS011;17169;50.966;11.038;2022-08-05T00:46:55;10.40;;;2.85;;
30380;SDS011;17169;50.966;11.038;2022-08-05T00:49:58;8.98;;;2.85;;
30380;SDS011;17169;50.966;11.038;2022-08-05T00:53:01;5.45;;;2.40;;
30380;SDS011;17169;50.966;11.038;2022-08-05T00:56:04;9.25;;;2.92;;
30380;SDS011;17169;50.966;11.038;2022-08-05T00:59:07;10.60;;;2.60;;
30380;SDS011;17169;50.966;11.038;2022-08-05T01:02:09;11.50;;;3.08;;
30380;SDS011;17169;50.966;11.038;2022-08-05T01:05:12;10.63;;;2.17;;
30380;SDS011;17169;50.966;11.038;2022-08-05T01:08:16;4.53;;;2.08;;
30380;SDS011;17169;50.966;11.038;2022-08-05T01:11:20;7.15;;;1.85;;
30380;SDS011;17169;50.966;11.038;2022-08-05T01:14:29;6.72;;;2.28;;
30380;SDS011;17169;50.966;11.038;2022-08-05T01:17:37;6.68;;;2.50;;
30380;SDS011;17169;50.966;11.038;2022-08-05T01:20:45;17.50;;;2.50;;
30380;SDS011;17169;50.966;11.038;2022-08-05T01:24:00;8.52;;;2.03;;
30380;SDS011;17169;50.966;11.038;2022-08-05T01:27:12;9.07;;;2.33;;
30380;SDS011;17169;50.966;11.038;2022-08-05T01:30:30;7.55;;;2.10;;
30380;SDS011;17169;50.966;11.038;2022-08-05T01:33:38;13.15;;;2.30;;
30380;SDS011;17169;50.966;11.038;2022-08-05T01:36:48;6.57;;;2.13;;
30380;SDS011;17169;50.966;11.038;2022-08-05T01:39:54;12.75;;;2.30;;
30380;SDS011;17169;50.966;11.038;2022-08-05T01:43:00;6.97;;;2.60;;
30380;SDS011;17169;50.966;11.038;2022-08-05T01:46:05;14.50;;;2.70;;
30380;SDS011;17169;50.966;11.038;2022-08-05T01:49:09;9.65;;;2.90;;
30380;SDS011;17169;50.966;11.038;2022-08-05T01:52:14;7.80;;;2.92;;
30380;SDS011;17169;50.966;11.038;2022-08-05T01:55:19;8.85;;;2.75;;
30380;SDS011;17169;50.966;11.038;2022-08-05T01:58:24;5.70;;;2.65;;
30380;SDS011;17169;50.966;11.038;2022-08-05T02:01:29;14.30;;;6.95;;
30380;SDS011;17169;50.966;11.038;2022-08-05T02:04:34;14.32;;;4.32;;
30380;SDS011;17169;50.966;11.038;2022-08-05T02:07:38;12.90;;;3.92;;
30380;SDS011;17169;50.966;11.038;2022-08-05T02:10:43;12.77;;;6.35;;
30380;SDS011;17169;50.966;11.038;2022-08-05T02:13:52;10.30;;;6.75;;
30380;SDS011;17169;50.966;11.038;2022-08-05T02:17:00;12.95;;;6.65;;
30380;SDS011;17169;50.966;11.038;2022-08-05T02:20:09;8.27;;;4.45;;
30380;SDS011;17169;50.966;11.038;2022-08-05T02:23:15;5.63;;;2.78;;
30380;SDS011;17169;50.966;11.038;2022-08-05T02:26:27;9.13;;;2.80;;
30380;SDS011;17169;50.966;11.038;2022-08-05T02:29:36;7.47;;;2.42;;
30380;SDS011;17169;50.966;11.038;2022-08-05T02:32:45;6.53;;;2.38;;
30380;SDS011;17169;50.966;11.038;2022-08-05T02:35:51;8.98;;;2.55;;
30380;SDS011;17169;50.966;11.038;2022-08-05T02:38:55;7.65;;;2.45;;
30380;SDS011;17169;50.966;11.038;2022-08-05T02:41:58;9.88;;;2.60;;
30380;SDS011;17169;50.966;11.038;2022-08-05T02:45:03;12.23;;;3.35;;
30380;SDS011;17169;50.966;11.038;2022-08-05T02:48:09;6.03;;;3.53;;
30380;SDS011;17169;50.966;11.038;2022-08-05T02:51:12;11.55;;;2.67;;
30380;SDS011;17169;50.966;11.038;2022-08-05T02:54:16;11.18;;;2.60;;
30380;SDS011;17169;50.966;11.038;2022-08-05T02:57:20;22.80;;;10.35;;
30380;SDS011;17169;50.966;11.038;2022-08-05T03:00:25;9.93;;;3.75;;
30380;SDS011;17169;50.966;11.038;2022-08-05T03:03:30;9.85;;;2.78;;
30380;SDS011;17169;50.966;11.038;2022-08-05T03:06:34;9.63;;;2.63;;
30380;SDS011;17169;50.966;11.038;2022-08-05T03:09:40;4.40;;;2.13;;
30380;SDS011;17169;50.966;11.038;2022-08-05T03:12:43;8.02;;;2.60;;
30380;SDS011;17169;50.966;11.038;2022-08-05T03:15:46;10.07;;;3.40;;
30380;SDS011;17169;50.966;11.038;2022-08-05T03:18:50;8.88;;;2.80;;
30380;SDS011;17169;50.966;11.038;2022-08-05T03:21:52;7.97;;;3.03;;
30380;SDS011;17169;50.966;11.038;2022-08-05T03:24:55;16.90;;;2.88;;
30380;SDS011;17169;50.966;11.038;2022-08-05T03:27:58;6.63;;;2.53;;
30380;SDS011;17169;50.966;11.038;2022-08-05T03:31:02;18.20;;;3.08;;
30380;SDS011;17169;50.966;11.038;2022-08-05T03:34:06;12.38;;;2.47;;
30380;SDS011;17169;50.966;11.038;2022-08-05T03:37:09;5.22;;;2.58;;
30380;SDS011;17169;50.966;11.038;2022-08-05T03:40:12;15.32;;;2.90;;
30380;SDS011;17169;50.966;11.038;2022-08-05T03:43:15;12.27;;;2.17;;
30380;SDS011;17169;50.966;11.038;2022-08-05T03:46:18;12.25;;;2.60;;
30380;SDS011;17169;50.966;11.038;2022-08-05T03:49:22;10.88;;;2.67;;
30380;SDS011;17169;50.966;11.038;2022-08-05T03:52:26;7.57;;;2.28;;
30380;SDS011;17169;50.966;11.038;2022-08-05T03:55:32;13.20;;;2.45;;
30380;SDS011;17169;50.966;11.038;2022-08-05T03:58:41;7.75;;;2.40;;
30380;SDS011;17169;50.966;11.038;2022-08-05T04:01:47;9.98;;;2.70;;
30380;SDS011;17169;50.966;11.038;2022-08-05T04:04:53;5.25;;;2.30;;
30380;SDS011;17169;50.966;11.038;2022-08-05T04:07:56;8.35;;;2.58;;
30380;SDS011;17169;50.966;11.038;2022-08-05T04:11:00;6.32;;;2.20;;
30380;SDS011;17169;50.966;11.038;2022-08-05T04:14:03;11.55;;;2.60;;
30380;SDS011;17169;50.966;11.038;2022-08-05T04:17:07;8.43;;;2.67;;
30380;SDS011;17169;50.966;11.038;2022-08-05T04:20:17;8.40;;;3.22;;
30380;SDS011;17169;50.966;11.038;2022-08-05T04:23:21;7.40;;;2.70;;
30380;SDS011;17169;50.966;11.038;2022-08-05T04:26:25;15.85;;;3.20;;
30380;SDS011;17169;50.966;11.038;2022-08-05T04:29:27;9.80;;;3.33;;
30380;SDS011;17169;50.966;11.038;2022-08-05T04:32:30;6.32;;;2.95;;
30380;SDS011;17169;50.966;11.038;2022-08-05T04:35:34;10.13;;;3.25;;
30380;SDS011;17169;50.966;11.038;2022-08-05T04:38:36;10.43;;;4.70;;
30380;SDS011;17169;50.966;11.038;2022-08-05T04:41:39;4.53;;;3.05;;
30380;SDS011;17169;50.966;11.038;2022-08-05T04:44:41;6.30;;;2.88;;
30380;SDS011;17169;50.966;11.038;2022-08-05T04:47:43;6.22;;;3.03;;
30380;SDS011;17169;50.966;11.038;2022-08-05T04:50:47;6.57;;;2.90;;
30380;SDS011;17169;50.966;11.038;2022-08-05T04:53:50;11.93;;;2.67;;
30380;SDS011;17169;50.966;11.038;2022-08-05T04:56:52;7.90;;;3.28;;
30380;SDS011;17169;50.966;11.038;2022-08-05T04:59:55;7.13;;;2.90;;
30380;SDS011;17169;50.966;11.038;2022-08-05T05:02:58;11.02;;;3.45;;
30380;SDS011;17169;50.966;11.038;2022-08-05T05:06:01;9.25;;;3.03;;
30380;SDS011;17169;50.966;11.038;2022-08-05T05:09:04;6.13;;;2.97;;
30380;SDS011;17169;50.966;11.038;2022-08-05T05:12:07;7.32;;;2.97;;
30380;SDS011;17169;50.966;11.038;2022-08-05T05:15:09;8.35;;;3.35;;
30380;SDS011;17169;50.966;11.038;2022-08-05T05:18:12;12.93;;;3.90;;
30380;SDS011;17169;50.966;11.038;2022-08-05T05:21:16;9.90;;;3.00;;
30380;SDS011;17169;50.966;11.038;2022-08-05T05:24:19;4.95;;;2.90;;
30380;SDS011;17169;50.966;11.038;2022-08-05T05:27:21;5.70;;;3.00;;
30380;SDS011;17169;50.966;11.038;2022-08-05T05:30:24;7.47;;;3.03;;
30380;SDS011;17169;50.966;11.038;2022-08-05T05:33:27;7.90;;;3.22;;
30380;SDS011;17169;50.966;11.038;2022-08-05T05:36:30;4.15;;;3.00;;
30380;SDS011;17169;50.966;11.038;2022-08-05T05:39:33;5.60;;;2.72;;
30380;SDS011;17169;50.966;11.038;2022-08-05T05:42:35;7.75;;;3.45;;
30380;SDS011;17169;50.966;11.038;2022-08-05T05:45:38;8.38;;;3.30;;
30380;SDS011;17169;50.966;11.038;2022-08-05T05:48:40;9.13;;;2.97;;
30380;SDS011;17169;50.966;11.038;2022-08-05T05:51:44;8.95;;;3.08;;
30380;SDS011;17169;50.966;11.038;2022-08-05T05:54:47;11.90;;;4.03;;
30380;SDS011;17169;50.966;11.038;2022-08-05T05:57:49;16.52;;;3.28;;
30380;SDS011;17169;50.966;11.038;2022-08-05T06:00:51;13.60;;;3.67;;
30380;SDS011;17169;50.966;11.038;2022-08-05T06:03:54;10.55;;;2.78;;
30380;SDS011;17169;50.966;11.038;2022-08-05T06:06:57;8.32;;;2.83;;
30380;SDS011;17169;50.966;11.038;2022-08-05T06:10:00;9.20;;;3.50;;
30380;SDS011;17169;50.966;11.038;2022-08-05T06:13:02;12.82;;;3.00;;
30380;SDS011;17169;50.966;11.038;2022-08-05T06:16:05;8.60;;;3.20;;
30380;SDS011;17169;50.966;11.038;2022-08-05T06:19:08;11.35;;;3.20;;
30380;SDS011;17169;50.966;11.038;2022-08-05T06:22:12;10.02;;;3.47;;
30380;SDS011;17169;50.966;11.038;2022-08-05T06:25:24;9.90;;;3.50;;
30380;SDS011;17169;50.966;11.038;2022-08-05T06:28:26;7.78;;;3.05;;
30380;SDS011;17169;50.966;11.038;2022-08-05T06:31:28;7.60;;;3.25;;
30380;SDS011;17169;50.966;11.038;2022-08-05T06:34:31;8.23;;;3.67;;
30380;SDS011;17169;50.966;11.038;2022-08-05T06:37:35;9.98;;;4.20;;
30380;SDS011;17169;50.966;11.038;2022-08-05T06:40:37;8.13;;;3.42;;
30380;SDS011;17169;50.966;11.038;2022-08-05T06:43:40;7.20;;;3.30;;
30380;SDS011;17169;50.966;11.038;2022-08-05T06:46:42;8.63;;;4.82;;
30380;SDS011;17169;50.966;11.038;2022-08-05T06:49:45;8.13;;;3.47;;
30380;SDS011;17169;50.966;11.038;2022-08-05T06:52:49;13.23;;;3.78;;
30380;SDS011;17169;50.966;11.038;2022-08-05T06:55:51;8.73;;;3.20;;
30380;SDS011;17169;50.966;11.038;2022-08-05T06:58:54;5.07;;;3.17;;
30380;SDS011;17169;50.966;11.038;2022-08-05T07:01:56;7.00;;;3.08;;
30380;SDS011;17169;50.966;11.038;2022-08-05T07:04:59;6.90;;;2.50;;
30380;SDS011;17169;50.966;11.038;2022-08-05T07:08:03;8.60;;;2.83;;
30380;SDS011;17169;50.966;11.038;2022-08-05T07:11:06;7.95;;;2.83;;
30380;SDS011;17169;50.966;11.038;2022-08-05T07:14:08;7.25;;;2.67;;
30380;SDS011;17169;50.966;11.038;2022-08-05T07:17:28;12.65;;;2.85;;
30380;SDS011;17169;50.966;11.038;2022-08-05T07:20:30;7.50;;;2.60;;
30380;SDS011;17169;50.966;11.038;2022-08-05T07:23:34;10.25;;;2.88;;
30380;SDS011;17169;50.966;11.038;2022-08-05T07:26:37;13.50;;;2.95;;
30380;SDS011;17169;50.966;11.038;2022-08-05T07:29:40;6.18;;;3.45;;
30380;SDS011;17169;50.966;11.038;2022-08-05T07:32:43;8.65;;;3.10;;
30380;SDS011;17169;50.966;11.038;2022-08-05T07:35:46;3.78;;;2.28;;
30380;SDS011;17169;50.966;11.038;2022-08-05T07:38:50;8.40;;;2.45;;
30380;SDS011;17169;50.966;11.038;2022-08-05T07:41:53;9.43;;;3.17;;
30380;SDS011;17169;50.966;11.038;2022-08-05T07:44:55;7.47;;;2.60;;
30380;SDS011;17169;50.966;11.038;2022-08-05T07:47:57;5.70;;;2.85;;
30380;SDS011;17169;50.966;11.038;2022-08-05T07:51:00;14.25;;;3.30;;
30380;SDS011;17169;50.966;11.038;2022-08-05T07:54:04;18.23;;;4.40;;
30380;SDS011;17169;50.966;11.038;2022-08-05T07:57:07;10.63;;;3.40;;
30380;SDS011;17169;50.966;11.038;2022-08-05T08:00:09;9.60;;;3.15;;
30380;SDS011;17169;50.966;11.038;2022-08-05T08:03:14;10.48;;;2.88;;
30380;SDS011;17169;50.966;11.038;2022-08-05T08:06:16;8.18;;;3.00;;
30380;SDS011;17169;50.966;11.038;2022-08-05T08:09:21;7.50;;;2.92;;
30380;SDS011;17169;50.966;11.038;2022-08-05T08:12:24;7.90;;;3.10;;
30380;SDS011;17169;50.966;11.038;2022-08-05T08:15:26;8.57;;;2.78;;
30380;SDS011;17169;50.966;11.038;2022-08-05T08:18:29;8.55;;;2.65;;
30380;SDS011;17169;50.966;11.038;2022-08-05T08:21:31;5.78;;;2.70;;
30380;SDS011;17169;50.966;11.038;2022-08-05T08:24:35;6.53;;;2.70;;
30380;SDS011;17169;50.966;11.038;2022-08-05T08:27:38;6.43;;;3.03;;
30380;SDS011;17169;50.966;11.038;2022-08-05T08:30:42;4.82;;;2.70;;
30380;SDS011;17169;50.966;11.038;2022-08-05T08:33:44;5.93;;;2.90;;
30380;SDS011;17169;50.966;11.038;2022-08-05T08:36:47;10.35;;;2.22;;
30380;SDS011;17169;50.966;11.038;2022-08-05T08:39:51;6.90;;;2.70;;
30380;SDS011;17169;50.966;11.038;2022-08-05T08:42:53;5.82;;;2.45;;
30380;SDS011;17169;50.966;11.038;2022-08-05T08:45:56;4.15;;;2.08;;
30380;SDS011;17169;50.966;11.038;2022-08-05T08:48:59;6.78;;;2.40;;
30380;SDS011;17169;50.966;11.038;2022-08-05T08:52:07;7.68;;;2.70;;
30380;SDS011;17169;50.966;11.038;2022-08-05T08:55:15;5.38;;;2.30;;
30380;SDS011;17169;50.966;11.038;2022-08-05T08:58:19;6.90;;;2.55;;
30380;SDS011;17169;50.966;11.038;2022-08-05T09:01:21;4.68;;;2.35;;
30380;SDS011;17169;50.966;11.038;2022-08-05T09:04:24;5.18;;;2.67;;
30380;SDS011;17169;50.966;11.038;2022-08-05T09:07:26;4.60;;;2.08;;
30380;SDS011;17169;50.966;11.038;2022-08-05T09:10:30;5.45;;;2.25;;
30380;SDS011;17169;50.966;11.038;2022-08-05T09:13:33;8.10;;;2.00;;
30380;SDS011;17169;50.966;11.038;2022-08-05T09:16:37;6.85;;;2.22;;
30380;SDS011;17169;50.966;11.038;2022-08-05T09:19:40;11.57;;;2.15;;
30380;SDS011;17169;50.966;11.038;2022-08-05T09:26:08;3.75;;;2.20;;
30380;SDS011;17169;50.966;11.038;2022-08-05T09:29:11;6.22;;;2.40;;
30380;SDS011;17169;50.966;11.038;2022-08-05T09:32:14;6.47;;;2.17;;
30380;SDS011;17169;50.966;11.038;2022-08-05T09:35:18;4.22;;;2.10;;
30380;SDS011;17169;50.966;11.038;2022-08-05T09:38:21;3.80;;;2.00;;
30380;SDS011;17169;50.966;11.038;2022-08-05T09:41:25;5.68;;;2.05;;
30380;SDS011;17169;50.966;11.038;2022-08-05T09:44:34;5.28;;;1.98;;
30380;SDS011;17169;50.966;11.038;2022-08-05T09:47:39;3.92;;;1.85;;
30380;SDS011;17169;50.966;11.038;2022-08-05T09:50:47;5.22;;;2.20;;
30380;SDS011;17169;50.966;11.038;2022-08-05T09:53:53;2.58;;;1.80;;
30380;SDS011;17169;50.966;11.038;2022-08-05T09:56:59;2.92;;;1.77;;
30380;SDS011;17169;50.966;11.038;2022-08-05T10:00:04;4.13;;;2.00;;
30380;SDS011;17169;50.966;11.038;2022-08-05T10:03:10;5.28;;;2.05;;
30380;SDS011;17169;50.966;11.038;2022-08-05T10:06:12;3.80;;;1.67;;
30380;SDS011;17169;50.966;11.038;2022-08-05T10:09:20;3.60;;;1.73;;
30380;SDS011;17169;50.966;11.038;2022-08-05T10:12:23;4.07;;;2.17;;
30380;SDS011;17169;50.966;11.038;2022-08-05T10:15:27;3.72;;;1.92;;
30380;SDS011;17169;50.966;11.038;2022-08-05T10:18:31;3.42;;;1.92;;
30380;SDS011;17169;50.966;11.038;2022-08-05T10:21:34;5.90;;;1.95;;
30380;SDS011;17169;50.966;11.038;2022-08-05T10:24:36;3.78;;;2.30;;
30380;SDS011;17169;50.966;11.038;2022-08-05T10:27:40;3.88;;;2.08;;
30380;SDS011;17169;50.966;11.038;2022-08-05T10:30:43;3.90;;;2.30;;
30380;SDS011;17169;50.966;11.038;2022-08-05T10:33:46;5.13;;;1.88;;
30380;SDS011;17169;50.966;11.038;2022-08-05T10:36:48;4.82;;;1.80;;
30380;SDS011;17169;50.966;11.038;2022-08-05T10:39:51;3.70;;;2.20;;
30380;SDS011;17169;50.966;11.038;2022-08-05T10:43:00;4.28;;;2.40;;
30380;SDS011;17169;50.966;11.038;2022-08-05T10:46:09;4.38;;;1.92;;
30380;SDS011;17169;50.966;11.038;2022-08-05T10:49:12;4.80;;;2.28;;
30380;SDS011;17169;50.966;11.038;2022-08-05T10:52:19;3.75;;;2.00;;
30380;SDS011;17169;50.966;11.038;2022-08-05T10:55:38;5.43;;;1.48;;
30380;SDS011;17169;50.966;11.038;2022-08-05T10:59:06;3.83;;;1.80;;
30380;SDS011;17169;50.966;11.038;2022-08-05T11:02:09;2.60;;;1.70;;
30380;SDS011;17169;50.966;11.038;2022-08-05T11:05:12;4.72;;;1.70;;
30380;SDS011;17169;50.966;11.038;2022-08-05T11:08:14;5.00;;;2.35;;
30380;SDS011;17169;50.966;11.038;2022-08-05T11:11:33;3.70;;;2.17;;
30380;SDS011;17169;50.966;11.038;2022-08-05T11:14:38;3.72;;;1.85;;
30380;SDS011;17169;50.966;11.038;2022-08-05T11:17:40;3.97;;;1.57;;
30380;SDS011;17169;50.966;11.038;2022-08-05T11:20:44;5.45;;;1.60;;
30380;SDS011;17169;50.966;11.038;2022-08-05T11:23:51;3.65;;;1.83;;
30380;SDS011;17169;50.966;11.038;2022-08-05T11:30:31;5.07;;;1.70;;
30380;SDS011;17169;50.966;11.038;2022-08-05T11:33:34;3.55;;;2.05;;
30380;SDS011;17169;50.966;11.038;2022-08-05T11:36:41;4.60;;;1.80;;
30380;SDS011;17169;50.966;11.038;2022-08-05T11:39:51;3.90;;;1.50;;
30380;SDS011;17169;50.966;11.038;2022-08-05T11:42:54;3.08;;;1.88;;
30380;SDS011;17169;50.966;11.038;2022-08-05T11:45:57;3.17;;;1.60;;
30380;SDS011;17169;50.966;11.038;2022-08-05T11:49:01;4.03;;;1.80;;
30380;SDS011;17169;50.966;11.038;2022-08-05T11:52:05;5.90;;;2.10;;
30380;SDS011;17169;50.966;11.038;2022-08-05T11:55:07;4.57;;;2.20;;
30380;SDS011;17169;50.966;11.038;2022-08-05T11:58:11;2.83;;;1.52;;
30380;SDS011;17169;50.966;11.038;2022-08-05T12:01:15;4.75;;;1.65;;
30380;SDS011;17169;50.966;11.038;2022-08-05T12:04:19;4.03;;;1.92;;
30380;SDS011;17169;50.966;11.038;2022-08-05T12:07:22;2.72;;;1.80;;
30380;SDS011;17169;50.966;11.038;2022-08-05T12:10:25;7.40;;;1.90;;
30380;SDS011;17169;50.966;11.038;2022-08-05T12:13:28;5.03;;;1.83;;
30380;SDS011;17169;50.966;11.038;2022-08-05T12:16:32;4.80;;;2.08;;
30380;SDS011;17169;50.966;11.038;2022-08-05T12:19:39;4.85;;;2.00;;
30380;SDS011;17169;50.966;11.038;2022-08-05T12:22:42;5.82;;;1.80;;
30380;SDS011;17169;50.966;11.038;2022-08-05T12:25:48;4.90;;;2.08;;
30380;SDS011;17169;50.966;11.038;2022-08-05T12:28:52;3.17;;;1.88;;
30380;SDS011;17169;50.966;11.038;2022-08-05T12:31:57;5.53;;;1.85;;
30380;SDS011;17169;50.966;11.038;2022-08-05T12:35:01;4.90;;;1.98;;
30380;SDS011;17169;50.966;11.038;2022-08-05T12:38:04;3.05;;;1.88;;
30380;SDS011;17169;50.966;11.038;2022-08-05T12:41:07;3.45;;;2.30;;
30380;SDS011;17169;50.966;11.038;2022-08-05T12:44:11;5.78;;;2.30;;
30380;SDS011;17169;50.966;11.038;2022-08-05T12:47:26;3.40;;;2.13;;
30380;SDS011;17169;50.966;11.038;2022-08-05T12:50:29;7.90;;;2.55;;
30380;SDS011;17169;50.966;11.038;2022-08-05T12:53:32;8.63;;;2.15;;
30380;SDS011;17169;50.966;11.038;2022-08-05T12:56:34;5.65;;;2.17;;
30380;SDS011;17169;50.966;11.038;2022-08-05T12:59:43;4.50;;;2.05;;
30380;SDS011;17169;50.966;11.038;2022-08-05T13:02:48;6.78;;;2.30;;
30380;SDS011;17169;50.966;11.038;2022-08-05T13:05:51;3.00;;;2.13;;
30380;SDS011;17169;50.966;11.038;2022-08-05T13:08:54;2.42;;;1.85;;
30380;SDS011;17169;50.966;11.038;2022-08-05T13:12:00;4.05;;;2.45;;
30380;SDS011;17169;50.966;11.038;2022-08-05T13:15:04;3.75;;;1.90;;
30380;SDS011;17169;50.966;11.038;2022-08-05T13:18:11;5.25;;;2.45;;
30380;SDS011;17169;50.966;11.038;2022-08-05T13:21:13;5.90;;;2.08;;
30380;SDS011;17169;50.966;11.038;2022-08-05T13:24:16;5.03;;;2.25;;
30380;SDS011;17169;50.966;11.038;2022-08-05T13:27:25;5.43;;;2.40;;
30380;SDS011;17169;50.966;11.038;2022-08-05T13:30:29;3.53;;;2.25;;
30380;SDS011;17169;50.966;11.038;2022-08-05T13:33:32;4.88;;;2.45;;
30380;SDS011;17169;50.966;11.038;2022-08-05T13:36:35;3.47;;;2.13;;
30380;SDS011;17169;50.966;11.038;2022-08-05T13:39:38;6.47;;;2.40;;
30380;SDS011;17169;50.966;11.038;2022-08-05T13:42:40;7.43;;;3.00;;
30380;SDS011;17169;50.966;11.038;2022-08-05T13:45:43;7.13;;;2.38;;
30380;SDS011;17169;50.966;11.038;2022-08-05T13:48:47;3.45;;;2.00;;
30380;SDS011;17169;50.966;11.038;2022-08-05T13:51:49;7.33;;;2.23;;
30380;SDS011;17169;50.966;11.038;2022-08-05T13:54:52;8.80;;;2.13;;
30380;SDS011;17169;50.966;11.038;2022-08-05T13:57:54;5.90;;;2.00;;
30380;SDS011;17169;50.966;11.038;2022-08-05T14:00:57;4.88;;;1.85;;
30380;SDS011;17169;50.966;11.038;2022-08-05T14:04:00;6.00;;;2.15;;
30380;SDS011;17169;50.966;11.038;2022-08-05T14:07:21;4.00;;;2.15;;
30380;SDS011;17169;50.966;11.038;2022-08-05T14:10:25;5.20;;;2.25;;
30380;SDS011;17169;50.966;11.038;2022-08-05T14:13:27;4.43;;;2.22;;
30380;SDS011;17169;50.966;11.038;2022-08-05T14:16:29;5.38;;;2.80;;
30380;SDS011;17169;50.966;11.038;2022-08-05T14:19:33;5.65;;;1.80;;
30380;SDS011;17169;50.966;11.038;2022-08-05T14:22:35;3.78;;;2.00;;
30380;SDS011;17169;50.966;11.038;2022-08-05T14:25:38;6.43;;;2.60;;
30380;SDS011;17169;50.966;11.038;2022-08-05T14:28:40;7.65;;;2.30;;
30380;SDS011;17169;50.966;11.038;2022-08-05T14:31:43;6.82;;;2.38;;
30380;SDS011;17169;50.966;11.038;2022-08-05T14:34:46;4.45;;;2.30;;
30380;SDS011;17169;50.966;11.038;2022-08-05T14:37:49;5.57;;;2.20;;
30380;SDS011;17169;50.966;11.038;2022-08-05T14:40:51;6.00;;;2.70;;
30380;SDS011;17169;50.966;11.038;2022-08-05T14:43:54;4.25;;;2.22;;
30380;SDS011;17169;50.966;11.038;2022-08-05T14:46:56;4.57;;;2.28;;
30380;SDS011;17169;50.966;11.038;2022-08-05T14:50:00;2.88;;;1.80;;
30380;SDS011;17169;50.966;11.038;2022-08-05T14:53:02;4.05;;;2.25;;
30380;SDS011;17169;50.966;11.038;2022-08-05T14:56:05;3.80;;;2.28;;
30380;SDS011;17169;50.966;11.038;2022-08-05T14:59:08;9.07;;;2.90;;
30380;SDS011;17169;50.966;11.038;2022-08-05T15:02:10;10.18;;;3.47;;
30380;SDS011;17169;50.966;11.038;2022-08-05T15:05:14;6.97;;;3.58;;
30380;SDS011;17169;50.966;11.038;2022-08-05T15:08:16;9.93;;;4.55;;
30380;SDS011;17169;50.966;11.038;2022-08-05T15:11:19;7.53;;;4.38;;
30380;SDS011;17169;50.966;11.038;2022-08-05T15:14:21;9.65;;;5.18;;
30380;SDS011;17169;50.966;11.038;2022-08-05T15:17:24;11.30;;;5.65;;
30380;SDS011;17169;50.966;11.038;2022-08-05T15:20:27;8.88;;;5.97;;
30380;SDS011;17169;50.966;11.038;2022-08-05T15:23:30;12.35;;;6.75;;
30380;SDS011;17169;50.966;11.038;2022-08-05T15:26:32;9.05;;;6.15;;
30380;SDS011;17169;50.966;11.038;2022-08-05T15:29:34;12.05;;;6.30;;
30380;SDS011;17169;50.966;11.038;2022-08-05T15:32:37;10.90;;;6.13;;
30380;SDS011;17169;50.966;11.038;2022-08-05T15:35:41;8.05;;;5.60;;
30380;SDS011;17169;50.966;11.038;2022-08-05T15:38:43;9.93;;;5.22;;
30380;SDS011;17169;50.966;11.038;2022-08-05T15:41:46;8.55;;;4.97;;
30380;SDS011;17169;50.966;11.038;2022-08-05T15:44:48;9.57;;;4.90;;
30380;SDS011;17169;50.966;11.038;2022-08-05T15:47:51;9.07;;;5.18;;
30380;SDS011;17169;50.966;11.038;2022-08-05T15:50:54;8.15;;;4.63;;
30380;SDS011;17169;50.966;11.038;2022-08-05T15:53:57;18.50;;;5.40;;
30380;SDS011;17169;50.966;11.038;2022-08-05T15:57:00;8.13;;;4.40;;
30380;SDS011;17169;50.966;11.038;2022-08-05T16:00:03;11.90;;;5.03;;
30380;SDS011;17169;50.966;11.038;2022-08-05T16:03:06;13.18;;;4.93;;
30380;SDS011;17169;50.966;11.038;2022-08-05T16:06:10;11.23;;;4.38;;
30380;SDS011;17169;50.966;11.038;2022-08-05T16:09:13;9.45;;;4.50;;
30380;SDS011;17169;50.966;11.038;2022-08-05T16:12:15;9.43;;;4.18;;
30380;SDS011;17169;50.966;11.038;2022-08-05T16:15:18;9.23;;;4.25;;
30380;SDS011;17169;50.966;11.038;2022-08-05T16:18:21;10.05;;;4.13;;
30380;SDS011;17169;50.966;11.038;2022-08-05T16:21:25;7.40;;;3.55;;
30380;SDS011;17169;50.966;11.038;2022-08-05T16:24:27;7.32;;;3.20;;
30380;SDS011;17169;50.966;11.038;2022-08-05T16:27:29;7.25;;;3.40;;
30380;SDS011;17169;50.966;11.038;2022-08-05T16:30:32;6.32;;;3.22;;
30380;SDS011;17169;50.966;11.038;2022-08-05T16:33:35;8.48;;;3.10;;
30380;SDS011;17169;50.966;11.038;2022-08-05T16:36:38;6.57;;;2.92;;
30380;SDS011;17169;50.966;11.038;2022-08-05T16:39:41;6.10;;;2.72;;
30380;SDS011;17169;50.966;11.038;2022-08-05T16:42:44;5.70;;;2.75;;
30380;SDS011;17169;50.966;11.038;2022-08-05T16:45:47;8.50;;;2.25;;
30380;SDS011;17169;50.966;11.038;2022-08-05T16:48:50;9.27;;;2.90;;
30380;SDS011;17169;50.966;11.038;2022-08-05T16:51:54;5.68;;;2.38;;
30380;SDS011;17169;50.966;11.038;2022-08-05T16:54:56;9.27;;;2.70;;
30380;SDS011;17169;50.966;11.038;2022-08-05T16:57:58;7.32;;;2.63;;
30380;SDS011;17169;50.966;11.038;2022-08-05T17:01:01;4.15;;;2.10;;
30380;SDS011;17169;50.966;11.038;2022-08-05T17:04:03;7.70;;;2.22;;
30380;SDS011;17169;50.966;11.038;2022-08-05T17:07:07;8.85;;;2.53;;
30380;SDS011;17169;50.966;11.038;2022-08-05T17:10:10;7.57;;;2.47;;
30380;SDS011;17169;50.966;11.038;2022-08-05T17:13:12;8.18;;;2.47;;
30380;SDS011;17169;50.966;11.038;2022-08-05T17:16:15;6.60;;;2.20;;
30380;SDS011;17169;50.966;11.038;2022-08-05T17:19:17;5.57;;;2.22;;
30380;SDS011;17169;50.966;11.038;2022-08-05T17:22:21;6.05;;;2.38;;
30380;SDS011;17169;50.966;11.038;2022-08-05T17:25:24;6.30;;;2.20;;
30380;SDS011;17169;50.966;11.038;2022-08-05T17:28:27;6.80;;;2.10;;
30380;SDS011;17169;50.966;11.038;2022-08-05T17:31:29;5.88;;;1.90;;
30380;SDS011;17169;50.966;11.038;2022-08-05T17:34:32;4.60;;;1.73;;
30380;SDS011;17169;50.966;11.038;2022-08-05T17:37:36;4.38;;;1.45;;
30380;SDS011;17169;50.966;11.038;2022-08-05T17:40:38;4.22;;;2.03;;
30380;SDS011;17169;50.966;11.038;2022-08-05T17:43:41;2.92;;;1.90;;
30380;SDS011;17169;50.966;11.038;2022-08-05T17:46:43;4.13;;;2.00;;
30380;SDS011;17169;50.966;11.038;2022-08-05T17:49:45;8.48;;;1.73;;
30380;SDS011;17169;50.966;11.038;2022-08-05T17:52:49;3.85;;;1.45;;
30380;SDS011;17169;50.966;11.038;2022-08-05T17:55:51;5.68;;;2.28;;
30380;SDS011;17169;50.966;11.038;2022-08-05T17:58:55;3.72;;;1.35;;
30380;SDS011;17169;50.966;11.038;2022-08-05T18:01:58;5.70;;;1.60;;
30380;SDS011;17169;50.966;11.038;2022-08-05T18:05:02;3.92;;;1.40;;
30380;SDS011;17169;50.966;11.038;2022-08-05T18:08:06;2.83;;;1.35;;
30380;SDS011;17169;50.966;11.038;2022-08-05T18:11:09;4.10;;;1.58;;
30380;SDS011;17169;50.966;11.038;2022-08-05T18:14:11;3.95;;;1.40;;